Time;durP1;ratioP1;P1;durP2;ratioP2;P2;SDS_P1;SDS_P2;PMS_P1;PMS_P2;Temp;Humidity;BMP_temperature;BMP_pressure;BME280_temperature;BME280_humidity;BME280_pressure;Samples;Min_cycle;Max_cycle;Signal;HPM_P1;HPM_P2
2021/06/28 00:00:18;;;;;;;8.88;5.70;;;;;;;19.57;100.00;96161.69;5007286;28;20478;-88
2021/06/28 00:02:45;;;;;;;7.50;5.22;;;;;;;19.65;100.00;96156.03;5012713;28;20227;-88
2021/06/28 00:05:13;;;;;;;9.73;5.60;;;;;;;19.66;100.00;96157.63;4996365;28;20569;-89
2021/06/28 00:07:41;;;;;;;8.15;5.82;;;;;;;19.68;100.00;96163.56;4993092;28;20230;-89
2021/06/28 00:10:09;;;;;;;10.13;6.10;;;;;;;19.68;100.00;96168.91;4992811;28;20202;-89
2021/06/28 00:12:35;;;;;;;10.35;5.90;;;;;;;19.69;100.00;96172.38;4992685;28;20223;-89
2021/06/28 00:15:05;;;;;;;10.48;6.13;;;;;;;19.67;100.00;96159.25;4992991;28;20203;-88
2021/06/28 00:17:32;;;;;;;8.48;6.72;;;;;;;19.70;100.00;96164.16;4975945;28;20581;-89
2021/06/28 00:19:58;;;;;;;9.48;6.95;;;;;;;19.71;100.00;96165.75;4977405;28;20214;-89
2021/06/28 00:22:25;;;;;;;9.35;6.65;;;;;;;19.81;100.00;96175.88;4976992;28;20615;-88
2021/06/28 00:24:51;;;;;;;8.25;6.68;;;;;;;19.75;100.00;96193.66;4977264;28;20204;-90
2021/06/28 00:27:22;;;;;;;9.43;7.18;;;;;;;19.73;100.00;96190.41;4977294;28;20208;-89
2021/06/28 00:29:49;;;;;;;12.38;7.28;;;;;;;19.63;100.00;96200.06;4977285;28;20203;-89
2021/06/28 00:32:17;;;;;;;14.40;6.70;;;;;;;19.65;100.00;96187.28;4977152;28;20232;-89
2021/06/28 00:34:44;;;;;;;8.77;6.15;;;;;;;19.62;100.00;96193.09;4977161;28;20204;-89
2021/06/28 00:37:10;;;;;;;8.80;6.65;;;;;;;19.56;100.00;96207.38;4993845;28;20203;-89
2021/06/28 00:39:37;;;;;;;8.23;6.60;;;;;;;19.59;100.00;96201.59;4996378;28;20203;-88
2021/06/28 00:42:04;;;;;;;7.70;6.03;;;;;;;19.60;100.00;96200.53;4996168;28;20219;-88
2021/06/28 00:44:30;;;;;;;10.32;7.07;;;;;;;19.62;100.00;96198.44;5014777;28;20214;-88
2021/06/28 00:46:57;;;;;;;10.75;6.50;;;;;;;19.61;100.00;96200.31;5015939;28;20195;-89
2021/06/28 00:49:25;;;;;;;11.10;6.57;;;;;;;19.64;100.00;96201.72;5015720;28;20214;-89
2021/06/28 00:51:54;;;;;;;10.00;6.97;;;;;;;19.63;100.00;96198.22;5015628;28;20222;-88
2021/06/28 00:54:20;;;;;;;11.13;6.90;;;;;;;19.65;100.00;96197.97;5015602;28;20674;-89
2021/06/28 00:56:47;;;;;;;8.00;6.43;;;;;;;19.67;100.00;96195.88;5015506;28;20206;-88
2021/06/28 00:59:17;;;;;;;9.63;7.30;;;;;;;19.61;100.00;96181.59;5015512;28;20574;-88
2021/06/28 01:01:44;;;;;;;11.68;7.55;;;;;;;19.60;100.00;96179.97;5015345;28;20225;-88
2021/06/28 01:04:10;;;;;;;10.40;7.70;;;;;;;19.63;100.00;96174.13;5015479;28;20207;-89
2021/06/28 01:06:38;;;;;;;12.85;8.52;;;;;;;19.63;100.00;96155.44;5015467;28;20207;-89
2021/06/28 01:09:05;;;;;;;13.93;8.50;;;;;;;19.64;100.00;96146.38;5015362;28;20230;-88
2021/06/28 01:11:32;;;;;;;13.60;8.95;;;;;;;19.59;100.00;96148.13;5015141;28;20221;-88
2021/06/28 01:14:00;;;;;;;24.85;9.20;;;;;;;19.53;100.00;96138.38;5015240;28;20206;-89
2021/06/28 01:16:26;;;;;;;12.05;8.23;;;;;;;19.57;100.00;96143.00;5015276;28;20209;-88
2021/06/28 01:18:53;;;;;;;13.13;7.63;;;;;;;19.57;100.00;96145.66;5014883;28;20202;-89
2021/06/28 01:21:20;;;;;;;18.67;7.85;;;;;;;19.54;100.00;96156.03;5014734;28;20703;-89
2021/06/28 01:23:49;;;;;;;14.90;7.00;;;;;;;19.55;100.00;96160.31;5015030;28;20183;-90
2021/06/28 01:26:16;;;;;;;8.80;6.20;;;;;;;19.56;100.00;96155.78;5014781;28;20205;-90
2021/06/28 01:28:42;;;;;;;7.95;6.30;;;;;;;19.58;100.00;96160.66;5014239;28;20226;-89
2021/06/28 01:31:11;;;;;;;8.48;6.80;;;;;;;19.66;100.00;96162.97;5014942;28;20686;-89
2021/06/28 01:33:38;;;;;;;10.43;7.13;;;;;;;19.86;100.00;96174.13;5014895;28;20199;-89
2021/06/28 01:36:06;;;;;;;10.27;6.88;;;;;;;19.86;100.00;96176.78;5014699;28;20190;-88
2021/06/28 01:38:34;;;;;;;9.13;6.75;;;;;;;19.79;100.00;96177.97;5014677;28;20210;-88
2021/06/28 01:41:02;;;;;;;9.95;6.75;;;;;;;19.78;100.00;96192.38;5014608;28;20556;-88
2021/06/28 01:43:28;;;;;;;10.82;7.20;;;;;;;19.71;100.00;96197.03;5014853;28;20222;-89
2021/06/28 01:45:55;;;;;;;13.75;6.95;;;;;;;19.72;100.00;96196.81;5015064;28;20203;-89
2021/06/28 01:48:23;;;;;;;12.48;7.25;;;;;;;19.65;100.00;96192.63;5014995;28;20229;-89
2021/06/28 01:50:50;;;;;;;9.95;7.75;;;;;;;19.75;100.00;96177.59;5014710;28;20205;-88
2021/06/28 01:53:16;;;;;;;12.05;7.93;;;;;;;19.67;100.00;96169.16;5014637;28;20212;-89
2021/06/28 01:55:43;;;;;;;10.55;7.05;;;;;;;19.62;100.00;96172.50;5014709;28;20198;-89
2021/06/28 01:58:14;;;;;;;11.98;7.50;;;;;;;19.57;100.00;96166.25;5014919;28;20198;-88
2021/06/28 02:00:44;;;;;;;11.52;7.15;;;;;;;19.53;100.00;96173.09;5014874;28;20627;-89
2021/06/28 02:03:12;;;;;;;10.40;7.32;;;;;;;19.58;100.00;96162.53;5014864;28;20198;-88
2021/06/28 02:05:41;;;;;;;12.15;7.50;;;;;;;19.54;100.00;96163.22;5014474;28;20199;-88
2021/06/28 02:08:09;;;;;;;10.43;7.82;;;;;;;19.50;100.00;96162.91;5014410;28;20238;-88
2021/06/28 02:10:37;;;;;;;12.32;8.23;;;;;;;19.56;100.00;96147.78;5014587;28;20566;-88
2021/06/28 02:13:04;;;;;;;14.95;7.85;;;;;;;19.59;100.00;96156.94;5014392;28;20214;-88
2021/06/28 02:15:32;;;;;;;13.48;8.77;;;;;;;19.59;100.00;96159.63;5014583;28;20213;-88
2021/06/28 02:18:00;;;;;;;14.75;8.18;;;;;;;19.54;100.00;96158.72;5014160;28;20198;-89
2021/06/28 02:20:28;;;;;;;12.80;7.88;;;;;;;19.57;100.00;96161.69;5014485;28;20206;-88
2021/06/28 02:23:02;;;;;;;12.80;7.38;;;;;;;19.48;100.00;96164.19;5013912;28;20231;-88
2021/06/28 02:25:29;;;;;;;13.43;7.13;;;;;;;19.30;100.00;96166.97;5014091;28;20537;-89
2021/06/28 02:27:55;;;;;;;13.65;7.45;;;;;;;19.24;100.00;96165.22;5014132;28;20213;-88
2021/06/28 02:30:23;;;;;;;13.20;7.38;;;;;;;19.25;100.00;96177.53;5014358;28;20213;-88
2021/06/28 02:32:50;;;;;;;9.65;7.00;;;;;;;19.34;100.00;96182.28;5014180;28;20218;-88
2021/06/28 02:35:18;;;;;;;10.38;7.85;;;;;;;19.38;100.00;96182.66;5014299;28;20217;-88
2021/06/28 02:37:44;;;;;;;11.23;8.00;;;;;;;19.42;100.00;96181.13;5014052;28;20198;-88
2021/06/28 02:40:13;;;;;;;10.80;6.70;;;;;;;19.34;100.00;96178.81;5012884;28;20203;-88
2021/06/28 02:42:41;;;;;;;10.68;7.47;;;;;;;19.40;100.00;96178.69;5014058;28;20245;-88
2021/06/28 02:45:09;;;;;;;12.07;7.20;;;;;;;19.40;100.00;96178.69;5014069;28;20206;-88
2021/06/28 02:47:36;;;;;;;13.40;7.28;;;;;;;19.36;100.00;96180.22;5013841;28;20199;-88
2021/06/28 02:50:06;;;;;;;10.32;7.40;;;;;;;19.36;100.00;96174.03;5013464;28;20222;-88
2021/06/28 02:52:33;;;;;;;11.02;7.90;;;;;;;19.37;100.00;96170.31;5013888;28;20579;-88
2021/06/28 02:54:59;;;;;;;11.45;7.65;;;;;;;19.31;100.00;96163.22;5013577;28;20647;-88
2021/06/28 02:57:25;;;;;;;13.18;8.38;;;;;;;19.20;100.00;96151.50;5013462;28;20663;-88
2021/06/28 02:59:52;;;;;;;14.52;8.27;;;;;;;19.17;100.00;96149.31;5013461;28;20583;-88
2021/06/28 03:02:18;;;;;;;15.00;7.88;;;;;;;19.23;100.00;96144.88;5013470;28;20695;-88
2021/06/28 03:04:45;;;;;;;20.50;7.88;;;;;;;19.14;100.00;96143.59;5013685;28;20559;-88
2021/06/28 03:07:13;;;;;;;12.68;7.00;;;;;;;19.12;100.00;96133.16;5013195;28;20198;-88
2021/06/28 03:09:39;;;;;;;10.57;6.45;;;;;;;19.10;100.00;96140.56;5013108;28;20222;-88
2021/06/28 03:12:06;;;;;;;11.25;6.20;;;;;;;19.07;100.00;96138.38;5013319;28;20226;-87
2021/06/28 03:14:33;;;;;;;10.35;5.82;;;;;;;19.03;100.00;96133.72;5012992;28;20198;-88
2021/06/28 03:16:59;;;;;;;9.70;5.70;;;;;;;19.05;100.00;96128.94;5012998;28;20202;-88
2021/06/28 03:19:26;;;;;;;9.68;5.72;;;;;;;18.99;100.00;96124.50;5013036;28;20194;-88
2021/06/28 03:21:52;;;;;;;10.10;5.82;;;;;;;18.96;100.00;96138.31;5012926;28;20241;-88
2021/06/28 03:24:20;;;;;;;8.50;6.10;;;;;;;18.97;100.00;96130.06;5013359;28;20210;-88
2021/06/28 03:26:46;;;;;;;9.73;5.88;;;;;;;19.02;100.00;96132.88;5013307;28;20206;-88
2021/06/28 03:29:13;;;;;;;7.82;5.80;;;;;;;19.00;100.00;96131.47;5013199;28;20229;-88
2021/06/28 03:31:39;;;;;;;8.00;6.07;;;;;;;18.88;100.00;96127.19;5012842;28;20218;-88
2021/06/28 03:34:06;;;;;;;12.10;6.95;;;;;;;18.87;100.00;96123.69;5013178;28;20198;-88
2021/06/28 03:36:32;;;;;;;10.45;6.43;;;;;;;18.91;100.00;96116.03;5013079;28;20693;-88
2021/06/28 03:38:59;;;;;;;7.82;5.82;;;;;;;18.95;100.00;96124.16;5013014;28;20292;-88
2021/06/28 03:41:27;;;;;;;11.68;6.05;;;;;;;18.92;100.00;96131.81;5012808;28;20210;-88
2021/06/28 03:43:53;;;;;;;11.32;6.47;;;;;;;18.95;100.00;96136.69;5012761;28;20203;-89
2021/06/28 03:46:20;;;;;;;10.77;5.82;;;;;;;18.94;100.00;96137.75;5013041;28;20205;-88
2021/06/28 03:48:46;;;;;;;13.73;6.40;;;;;;;18.87;100.00;96149.59;5012889;28;20710;-88
2021/06/28 03:51:13;;;;;;;11.13;5.93;;;;;;;18.93;100.00;96146.81;5012458;28;20278;-88
2021/06/28 03:53:40;;;;;;;10.85;5.90;;;;;;;18.94;100.00;96145.78;5013254;28;20698;-88
2021/06/28 03:56:09;;;;;;;11.05;6.20;;;;;;;18.98;100.00;96142.41;5013190;28;20202;-88
2021/06/28 03:58:38;;;;;;;12.90;6.10;;;;;;;19.07;100.00;96151.72;5013059;28;20221;-88
2021/06/28 04:01:07;;;;;;;18.75;8.32;;;;;;;18.98;100.00;96155.75;5012676;28;20722;-88
2021/06/28 04:03:35;;;;;;;17.08;7.40;;;;;;;18.94;100.00;96167.13;5012655;28;20205;-88
2021/06/28 04:06:04;;;;;;;13.75;6.65;;;;;;;18.91;100.00;96166.78;5013072;28;20274;-88
2021/06/28 04:08:31;;;;;;;13.90;6.68;;;;;;;18.98;100.00;96163.75;5012883;28;20226;-87
2021/06/28 04:10:57;;;;;;;9.73;6.88;;;;;;;18.92;100.00;96169.22;5012703;28;20203;-88
2021/06/28 04:13:24;;;;;;;11.45;7.47;;;;;;;18.99;100.00;96177.91;5012864;28;20199;-88
2021/06/28 04:15:52;;;;;;;12.18;7.30;;;;;;;18.87;100.00;96178.97;5012859;28;20701;-88
2021/06/28 04:18:18;;;;;;;12.98;8.10;;;;;;;18.82;100.00;96174.28;5012681;28;20195;-88
2021/06/28 04:20:45;;;;;;;11.95;7.72;;;;;;;18.78;100.00;96178.47;5012339;28;20198;-88
2021/06/28 04:23:11;;;;;;;11.60;8.98;;;;;;;18.80;100.00;96180.91;5012914;28;20638;-88
2021/06/28 04:25:38;;;;;;;11.65;8.48;;;;;;;18.87;100.00;96181.63;5012792;28;20554;-88
2021/06/28 04:28:05;;;;;;;15.10;8.27;;;;;;;18.84;100.00;96174.06;5012408;28;20191;-88
2021/06/28 04:30:32;;;;;;;11.80;8.40;;;;;;;18.77;100.00;96171.50;5012318;28;20227;-88
2021/06/28 04:33:00;;;;;;;15.98;8.80;;;;;;;18.82;100.00;96171.63;5012558;28;20221;-88
2021/06/28 04:35:28;;;;;;;9.73;7.10;;;;;;;18.87;100.00;96169.06;5012400;28;20214;-88
2021/06/28 04:37:56;;;;;;;14.60;6.63;;;;;;;18.99;100.00;96169.91;5012510;28;20199;-88
2021/06/28 04:40:25;;;;;;;12.25;7.55;;;;;;;19.08;100.00;96173.88;5006740;28;20207;-88
2021/06/28 04:42:51;;;;;;;7.68;5.55;;;;;;;19.09;100.00;96168.34;4992964;28;20272;-88
2021/06/28 04:45:19;;;;;;;8.45;5.80;;;;;;;19.32;100.00;96159.50;4992641;28;20207;-88
2021/06/28 04:47:46;;;;;;;10.30;6.32;;;;;;;19.55;100.00;96149.63;4992282;28;20204;-89
2021/06/28 04:50:15;;;;;;;12.13;6.30;;;;;;;19.75;100.00;96150.88;4992427;28;20223;-88
2021/06/28 04:52:42;;;;;;;10.05;6.32;;;;;;;19.92;100.00;96157.16;5000973;28;20582;-88
2021/06/28 04:55:11;;;;;;;10.05;6.05;;;;;;;20.02;100.00;96149.34;5012278;28;20205;-87
2021/06/28 04:57:38;;;;;;;12.07;5.60;;;;;;;20.15;100.00;96157.09;5012003;28;20218;-87
2021/06/28 05:00:06;;;;;;;15.63;6.03;;;;;;;20.20;100.00;96157.22;5012147;28;20265;-88
2021/06/28 05:02:32;;;;;;;10.85;5.95;;;;;;;20.27;100.00;96161.34;5011996;28;20229;-87
2021/06/28 05:04:59;;;;;;;10.63;5.55;;;;;;;20.29;100.00;96158.44;5014662;28;20206;-88
2021/06/28 05:07:26;;;;;;;10.82;7.38;;;;;;;20.26;100.00;96164.25;5006426;28;20203;-88
2021/06/28 05:09:53;;;;;;;10.95;6.10;;;;;;;20.23;100.00;96160.19;4995410;28;20227;-87
2021/06/28 05:12:19;;;;;;;13.45;7.50;;;;;;;20.27;100.00;96165.91;4995482;28;20230;-88
2021/06/28 05:14:46;;;;;;;11.02;6.68;;;;;;;20.21;100.00;96161.47;4995821;28;20226;-87
2021/06/28 05:17:13;;;;;;;11.77;6.90;;;;;;;20.22;100.00;96168.47;4995807;28;20199;-88
2021/06/28 05:19:39;;;;;;;10.70;6.95;;;;;;;20.20;100.00;96175.94;4995392;28;20206;-88
2021/06/28 05:22:06;;;;;;;8.32;6.78;;;;;;;20.18;100.00;96176.16;4995087;28;20234;-88
2021/06/28 05:24:34;;;;;;;8.30;6.28;;;;;;;20.28;100.00;96172.88;4995657;28;20207;-88
2021/06/28 05:27:01;;;;;;;12.45;8.05;;;;;;;20.38;100.00;96163.16;4995063;28;20203;-89
2021/06/28 05:29:28;;;;;;;7.93;6.20;;;;;;;20.51;100.00;96160.22;4995428;28;20233;-88
2021/06/28 05:31:54;;;;;;;9.63;5.93;;;;;;;20.59;100.00;96169.72;4995396;28;20231;-87
2021/06/28 05:34:21;;;;;;;10.57;6.03;;;;;;;20.50;100.00;96165.81;4995228;28;20286;-88
2021/06/28 05:36:48;;;;;;;7.85;5.68;;;;;;;20.52;100.00;96161.00;4995611;28;20554;-88
2021/06/28 05:39:14;;;;;;;8.65;5.57;;;;;;;20.63;100.00;96160.16;5000653;28;20647;-90
2021/06/28 05:41:42;;;;;;;9.30;5.97;;;;;;;20.73;100.00;96153.13;5005168;28;20592;-90
2021/06/28 05:44:09;;;;;;;14.23;5.78;;;;;;;20.70;100.00;96163.50;5004388;28;20203;-90
2021/06/28 05:46:36;;;;;;;9.23;5.53;;;;;;;20.66;100.00;96154.31;5005517;28;20210;-91
2021/06/28 05:49:02;;;;;;;9.52;6.18;;;;;;;20.67;100.00;96156.75;5002403;28;20227;-90
2021/06/28 05:51:29;;;;;;;8.18;5.20;;;;;;;20.71;100.00;96160.59;5001601;28;20238;-90
2021/06/28 05:53:55;;;;;;;10.77;6.70;;;;;;;20.89;100.00;96161.19;5000635;28;20210;-90
2021/06/28 05:56:22;;;;;;;9.30;6.25;;;;;;;21.02;100.00;96150.16;4999592;28;20213;-90
2021/06/28 05:58:50;;;;;;;10.68;6.10;;;;;;;21.05;100.00;96148.84;4999443;28;20204;-91
2021/06/28 06:01:16;;;;;;;8.05;5.25;;;;;;;21.14;100.00;96142.03;5012709;28;20230;-88
2021/06/28 06:03:43;;;;;;;11.07;5.90;;;;;;;21.28;100.00;96146.81;5014482;28;20203;-89
2021/06/28 06:06:09;;;;;;;11.98;7.13;;;;;;;21.33;100.00;96143.41;5014515;28;20213;-89
2021/06/28 06:08:36;;;;;;;10.57;5.80;;;;;;;21.41;100.00;96141.13;5014235;28;20682;-88
2021/06/28 06:11:04;;;;;;;6.93;5.45;;;;;;;21.37;100.00;96147.22;5014255;28;20422;-90
2021/06/28 06:13:30;;;;;;;8.95;4.82;;;;;;;21.53;100.00;96136.50;5014402;28;20206;-89
2021/06/28 06:15:59;;;;;;;8.98;4.80;;;;;;;21.67;100.00;96132.41;5013009;28;20219;-88
2021/06/28 06:18:25;;;;;;;6.70;4.88;;;;;;;21.75;100.00;96137.34;4975144;28;20343;-88
2021/06/28 06:20:51;;;;;;;8.90;4.75;;;;;;;21.71;100.00;96133.53;4995413;28;20207;-88
2021/06/28 06:23:18;;;;;;;10.88;5.63;;;;;;;21.70;100.00;96134.59;4994453;28;20187;-89
2021/06/28 06:25:46;;;;;;;7.47;4.70;;;;;;;21.76;100.00;96134.41;4994595;28;20195;-90
2021/06/28 06:28:13;;;;;;;8.38;4.88;;;;;;;21.83;100.00;96135.06;4994435;28;20223;-91
2021/06/28 06:30:41;;;;;;;6.25;4.97;;;;;;;21.88;100.00;96143.16;4994520;28;20317;-88
2021/06/28 06:33:10;;;;;;;8.18;4.88;;;;;;;21.90;100.00;96142.91;4995159;28;20213;-89
2021/06/28 06:35:36;;;;;;;8.27;4.63;;;;;;;21.95;100.00;96142.97;4994411;28;20245;-88
2021/06/28 06:38:04;;;;;;;7.45;4.60;;;;;;;22.05;100.00;96143.91;4994689;28;20667;-90
2021/06/28 06:40:31;;;;;;;8.98;4.93;;;;;;;22.20;100.00;96144.91;4994190;28;20202;-89
2021/06/28 06:43:00;;;;;;;7.13;4.75;;;;;;;22.27;100.00;96144.75;4996995;28;20233;-89
2021/06/28 06:45:27;;;;;;;5.70;4.80;;;;;;;22.42;99.63;96143.03;5013003;28;20183;-87
2021/06/28 06:47:54;;;;;;;6.10;4.22;;;;;;;22.55;99.46;96144.53;5012806;28;20663;-90
2021/06/28 06:50:22;;;;;;;7.18;5.18;;;;;;;22.68;100.00;96148.44;5012962;28;20243;-89
2021/06/28 06:52:49;;;;;;;5.82;4.88;;;;;;;22.81;98.73;96144.50;5012441;28;20221;-90
2021/06/28 06:55:17;;;;;;;6.80;5.00;;;;;;;22.67;100.00;96142.50;5012996;28;20199;-90
2021/06/28 06:57:43;;;;;;;8.07;5.10;;;;;;;22.80;100.00;96146.38;5012574;28;20619;-89
2021/06/28 07:00:13;;;;;;;8.23;5.57;;;;;;;22.90;100.00;96140.31;5007755;28;20677;-91
2021/06/28 07:02:40;;;;;;;7.63;5.03;;;;;;;22.89;100.00;96144.84;5007808;28;20227;-88
2021/06/28 07:05:07;;;;;;;8.73;5.25;;;;;;;23.00;97.91;96138.56;4994147;28;20199;-88
2021/06/28 07:07:36;;;;;;;6.00;5.00;;;;;;;23.16;98.26;96144.84;5000889;28;20218;-88
2021/06/28 07:10:04;;;;;;;7.57;5.50;;;;;;;23.30;100.00;96141.47;4992838;28;20237;-87
2021/06/28 07:12:30;;;;;;;13.90;5.45;;;;;;;23.40;100.00;96145.03;4997072;28;20226;-89
2021/06/28 07:14:57;;;;;;;8.40;4.53;;;;;;;23.49;93.89;96146.19;4993653;28;20668;-88
2021/06/28 07:17:23;;;;;;;10.55;5.28;;;;;;;23.56;91.89;96146.78;4998223;28;20656;-87
2021/06/28 07:19:50;;;;;;;7.75;4.97;;;;;;;23.67;90.33;96142.25;5000494;28;20200;-88
2021/06/28 07:22:16;;;;;;;6.85;5.20;;;;;;;23.73;94.54;96147.44;4999232;28;20599;-88
2021/06/28 07:24:45;;;;;;;6.97;4.88;;;;;;;23.85;91.44;96145.34;5001264;28;20211;-88
2021/06/28 07:27:11;;;;;;;5.28;4.65;;;;;;;23.92;91.88;96135.19;4999720;28;20199;-88
2021/06/28 07:29:38;;;;;;;7.57;5.40;;;;;;;23.99;93.61;96143.81;4994299;28;20226;-87
2021/06/28 07:32:06;;;;;;;7.43;4.97;;;;;;;23.96;91.25;96139.75;5000064;28;20618;-88
2021/06/28 07:34:32;;;;;;;6.15;4.80;;;;;;;23.99;89.14;96141.94;4995228;28;20652;-87
2021/06/28 07:36:59;;;;;;;5.38;4.35;;;;;;;23.92;93.33;96140.56;5000557;28;20210;-89
2021/06/28 07:39:25;;;;;;;5.00;4.30;;;;;;;23.93;92.53;96145.69;5005758;28;20203;-89
2021/06/28 07:41:53;;;;;;;7.25;4.55;;;;;;;24.03;92.58;96137.66;5000565;28;20234;-89
2021/06/28 07:44:22;;;;;;;8.05;4.50;;;;;;;24.11;90.97;96149.81;5006281;28;20206;-90
2021/06/28 07:46:49;;;;;;;6.00;4.57;;;;;;;24.18;91.38;96139.59;4999153;28;20210;-88
2021/06/28 07:49:16;;;;;;;5.35;4.60;;;;;;;24.22;88.58;96141.50;5001532;28;20203;-88
2021/06/28 07:51:43;;;;;;;8.13;4.43;;;;;;;24.28;90.96;96145.03;4996588;28;20237;-89
2021/06/28 07:54:10;;;;;;;6.20;4.07;;;;;;;24.41;90.48;96152.63;5005962;28;20202;-87
2021/06/28 07:56:37;;;;;;;5.68;4.25;;;;;;;24.40;90.85;96153.72;5001148;28;20199;-88
2021/06/28 07:59:05;;;;;;;6.90;4.45;;;;;;;24.43;96.43;96154.00;5003565;28;20206;-88
2021/06/28 08:01:31;;;;;;;5.65;4.47;;;;;;;24.53;90.05;96150.50;5000657;28;20231;-87
2021/06/28 08:03:58;;;;;;;5.40;4.47;;;;;;;24.60;91.62;96141.94;4996442;28;20695;-88
2021/06/28 08:06:24;;;;;;;7.55;4.28;;;;;;;24.63;89.45;96148.66;4995823;28;20553;-87
2021/06/28 08:08:51;;;;;;;4.72;4.10;;;;;;;24.74;89.63;96142.22;5000078;28;20231;-88
2021/06/28 08:11:20;;;;;;;3.75;3.33;;;;;;;24.84;93.06;96144.94;5002001;28;20238;-88
2021/06/28 08:13:48;;;;;;;4.10;3.60;;;;;;;24.84;87.47;96145.72;5001786;28;20304;-89
2021/06/28 08:16:17;;;;;;;4.15;3.60;;;;;;;25.15;90.01;96136.63;4999335;28;20210;-89
2021/06/28 08:18:44;;;;;;;4.95;3.80;;;;;;;25.26;85.46;96135.53;4998862;28;20210;-89
2021/06/28 08:21:12;;;;;;;3.53;3.22;;;;;;;25.36;82.36;96136.34;4996211;28;20242;-89
2021/06/28 08:23:39;;;;;;;5.88;3.05;;;;;;;25.49;78.84;96132.28;4995342;28;20206;-88
2021/06/28 08:26:05;;;;;;;5.38;3.05;;;;;;;25.60;77.90;96125.78;4993250;28;20199;-89
2021/06/28 08:28:32;;;;;;;6.13;2.90;;;;;;;25.66;74.12;96127.41;4998791;28;20578;-89
2021/06/28 08:30:59;;;;;;;3.83;2.97;;;;;;;25.79;72.74;96126.84;5000949;28;20459;-89
2021/06/28 08:33:26;;;;;;;3.10;2.80;;;;;;;25.87;74.74;96119.81;4997075;28;20565;-89
2021/06/28 08:35:54;;;;;;;4.60;2.97;;;;;;;25.90;76.60;96124.69;4995217;28;20656;-90
2021/06/28 08:38:21;;;;;;;5.65;3.17;;;;;;;25.85;74.38;96124.69;4999017;28;20215;-88
2021/06/28 08:40:48;;;;;;;4.10;3.17;;;;;;;25.89;77.24;96125.75;4997069;28;20207;-89
2021/06/28 08:43:14;;;;;;;4.90;3.50;;;;;;;25.82;77.70;96123.63;5006415;28;20206;-89
2021/06/28 08:45:43;;;;;;;5.25;3.35;;;;;;;25.88;78.21;96120.66;4996296;28;20199;-90
2021/06/28 08:48:10;;;;;;;6.47;3.25;;;;;;;26.05;74.49;96113.81;4997083;28;20203;-87
2021/06/28 08:50:41;;;;;;;3.92;3.05;;;;;;;26.18;79.65;96107.81;5014952;28;20233;-89
2021/06/28 08:53:09;;;;;;;3.83;2.95;;;;;;;26.10;77.17;96108.41;5005431;28;20238;-88
2021/06/28 08:55:36;;;;;;;7.18;3.03;;;;;;;26.24;78.03;96109.41;5000735;28;20203;-85
2021/06/28 08:58:03;;;;;;;3.50;3.03;;;;;;;26.35;73.65;96111.03;5009777;28;20199;-87
2021/06/28 09:00:30;;;;;;;4.35;3.10;;;;;;;26.38;72.56;96110.47;5002417;28;20203;-88
2021/06/28 09:02:59;;;;;;;4.70;3.45;;;;;;;26.37;74.97;96113.44;5006420;28;20242;-86
2021/06/28 09:05:26;;;;;;;5.88;3.58;;;;;;;26.40;72.36;96116.41;5004040;28;20206;-88
2021/06/28 09:08:09;;;;;;;5.20;3.33;;;;;;;26.41;73.01;96109.91;5003122;28;20250;-89
2021/06/28 09:10:37;;;;;;;5.70;3.00;;;;;;;26.69;73.29;96106.50;4998798;28;20234;-91
2021/06/28 09:13:05;;;;;;;4.10;3.38;;;;;;;26.70;73.37;96108.13;5001885;28;20214;-89
2021/06/28 09:15:37;;;;;;;3.90;3.40;;;;;;;26.81;71.62;96104.28;5008627;28;20202;-87
2021/06/28 09:18:18;;;;;;;3.40;3.10;;;;;;;26.98;70.47;96110.13;5005589;28;20207;-87
2021/06/28 09:20:44;;;;;;;5.53;3.13;;;;;;;26.91;69.34;96112.28;5003043;28;20207;-89
2021/06/28 09:23:21;;;;;;;6.00;3.35;;;;;;;27.14;68.25;96099.72;5003648;28;20562;-90
2021/06/28 09:25:49;;;;;;;4.80;3.00;;;;;;;27.24;72.00;96099.63;5003119;28;20659;-86
2021/06/28 09:28:15;;;;;;;6.32;2.72;;;;;;;27.22;65.83;96101.00;5004736;28;20297;-90
2021/06/28 09:30:50;;;;;;;3.33;2.80;;;;;;;27.17;64.84;96101.84;5008011;28;20241;-86
2021/06/28 09:33:20;;;;;;;3.28;2.80;;;;;;;27.31;69.90;96100.09;5000766;28;20202;-87
2021/06/28 09:35:46;;;;;;;3.33;2.55;;;;;;;27.39;65.68;96098.69;4997617;28;20625;-87
2021/06/28 09:38:38;;;;;;;2.80;2.53;;;;;;;27.65;64.10;96092.78;4996016;28;20218;-88
2021/06/28 09:41:24;;;;;;;2.92;2.63;;;;;;;27.78;62.11;96092.09;5000108;28;20311;-88
2021/06/28 09:43:51;;;;;;;4.50;2.60;;;;;;;27.91;64.32;96094.09;5008100;28;20663;-89
2021/06/28 09:46:19;;;;;;;2.63;2.42;;;;;;;27.86;67.34;96091.44;5004006;28;20213;-89
2021/06/28 09:48:50;;;;;;;2.47;2.28;;;;;;;27.93;67.68;96090.00;5004506;28;20211;-86
2021/06/28 09:51:19;;;;;;;5.57;2.63;;;;;;;28.10;63.63;96086.84;5003014;28;20689;-90
2021/06/28 09:53:47;;;;;;;5.00;2.38;;;;;;;28.24;63.03;96087.78;5002927;28;20257;-89
2021/06/28 09:56:32;;;;;;;2.38;2.17;;;;;;;28.17;61.32;96087.31;5000109;28;20207;-87
2021/06/28 09:58:59;;;;;;;3.40;2.22;;;;;;;28.29;59.46;96087.72;5003190;28;20217;-88
2021/06/28 10:01:26;;;;;;;4.10;2.45;;;;;;;28.29;60.73;96087.72;5001816;28;20250;-90
2021/06/28 10:03:55;;;;;;;4.53;2.35;;;;;;;28.20;62.90;96092.19;4999620;28;20726;-86
2021/06/28 10:06:31;;;;;;;4.03;2.50;;;;;;;28.31;60.93;96089.03;5000351;28;20298;-89
2021/06/28 10:09:08;;;;;;;2.55;2.13;;;;;;;28.55;59.83;96090.63;5002840;28;20253;-87
2021/06/28 10:11:43;;;;;;;4.05;2.17;;;;;;;28.58;57.53;96089.22;5007251;28;20633;-87
2021/06/28 10:14:09;;;;;;;3.47;2.40;;;;;;;28.65;60.42;96095.06;4999627;28;20209;-89
2021/06/28 10:16:38;;;;;;;3.78;2.38;;;;;;;28.71;59.07;96086.56;4997445;28;20716;-90
2021/06/28 10:19:08;;;;;;;6.03;2.40;;;;;;;28.71;57.47;96089.28;5000063;28;20201;-87
2021/06/28 10:21:36;;;;;;;3.35;2.28;;;;;;;28.65;58.90;96095.88;4998789;28;20802;-88
2021/06/28 10:24:05;;;;;;;2.78;2.03;;;;;;;28.79;58.06;96094.06;4996147;28;20683;-89
2021/06/28 10:26:33;;;;;;;2.75;2.05;;;;;;;29.01;54.67;96095.09;5001471;28;20207;-88
2021/06/28 10:29:00;;;;;;;4.40;2.50;;;;;;;29.06;56.51;96086.06;4996330;28;20211;-89
2021/06/28 10:31:26;;;;;;;4.05;2.20;;;;;;;29.05;56.69;96087.19;5004158;28;20226;-90
2021/06/28 10:33:54;;;;;;;2.88;2.20;;;;;;;29.37;62.38;96087.22;5009404;28;20203;-91
2021/06/28 10:36:24;;;;;;;5.18;2.38;;;;;;;29.50;53.25;96087.25;5001562;28;20208;-90
2021/06/28 10:38:53;;;;;;;2.90;2.00;;;;;;;29.51;56.72;96088.06;4993857;28;20223;-90
2021/06/28 10:41:39;;;;;;;4.55;2.38;;;;;;;29.42;54.80;96084.41;4997380;28;20713;-89
2021/06/28 10:44:08;;;;;;;3.15;2.28;;;;;;;29.45;59.00;96094.69;4999130;28;20298;-89
2021/06/28 10:46:36;;;;;;;3.60;2.03;;;;;;;29.40;57.76;96075.75;5004387;28;20581;-89
2021/06/28 10:49:04;;;;;;;2.13;1.90;;;;;;;29.42;55.74;96071.63;5005252;28;20231;-86
2021/06/28 10:51:43;;;;;;;2.33;2.00;;;;;;;29.30;56.62;96075.88;5001951;28;20687;-88
2021/06/28 10:54:17;;;;;;;2.40;2.10;;;;;;;29.58;51.14;96066.75;4997767;28;20247;-90
2021/06/28 10:57:00;;;;;;;2.40;2.10;;;;;;;29.84;52.83;96066.78;5001191;28;20293;-90
2021/06/28 10:59:32;;;;;;;2.75;2.10;;;;;;;29.61;54.76;96056.09;5001571;28;20678;-86
2021/06/28 11:02:04;;;;;;;2.40;2.20;;;;;;;29.71;52.81;96062.13;4996885;28;20773;-88
2021/06/28 11:04:32;;;;;;;2.58;2.10;;;;;;;29.80;54.12;96060.31;5005840;28;20289;-87
2021/06/28 11:07:05;;;;;;;2.15;1.95;;;;;;;29.77;52.40;96050.06;5000725;28;20217;-88
2021/06/28 11:09:40;;;;;;;2.17;1.98;;;;;;;29.64;51.79;96050.03;4999758;28;20210;-87
2021/06/28 11:12:22;;;;;;;2.40;2.08;;;;;;;29.58;49.94;96047.72;4998013;28;21146;-88
2021/06/28 11:14:50;;;;;;;3.05;2.25;;;;;;;29.55;49.16;96049.13;4998703;28;20222;-88
2021/06/28 11:17:20;;;;;;;2.25;2.05;;;;;;;29.62;52.23;96035.94;5000394;28;20203;-87
2021/06/28 11:20:06;;;;;;;2.60;2.10;;;;;;;29.68;51.06;96034.75;4998995;28;20200;-88
2021/06/28 11:22:38;;;;;;;2.30;2.10;;;;;;;29.63;49.63;96032.97;4996742;28;20476;-87
2021/06/28 11:25:20;;;;;;;2.60;1.98;;;;;;;29.83;52.41;96037.97;5000214;28;20656;-89
2021/06/28 11:27:49;;;;;;;2.38;2.17;;;;;;;30.06;50.13;96036.22;5003438;28;20196;-88